sensor_id;sensor_type;location;lat;lon;timestamp;P1;durP1;ratioP1;P2;durP2;ratioP2
3563;SDS011;1796;52.388;13.096;2023-06-22T00:01:32;16.77;;;13.10;;
3563;SDS011;1796;52.388;13.096;2023-06-22T00:04:00;18.40;;;12.03;;
3563;SDS011;1796;52.388;13.096;2023-06-22T00:06:28;14.37;;;12.90;;
3563;SDS011;1796;52.388;13.096;2023-06-22T00:08:55;16.37;;;11.80;;
3563;SDS011;1796;52.388;13.096;2023-06-22T00:11:21;13.67;;;12.00;;
3563;SDS011;1796;52.388;13.096;2023-06-22T00:13:49;13.00;;;11.70;;
3563;SDS011;1796;52.388;13.096;2023-06-22T00:16:16;13.70;;;11.70;;
3563;SDS011;1796;52.388;13.096;2023-06-22T00:18:43;14.43;;;11.40;;
3563;SDS011;1796;52.388;13.096;2023-06-22T00:21:12;14.83;;;11.20;;
3563;SDS011;1796;52.388;13.096;2023-06-22T00:23:40;14.70;;;10.90;;
3563;SDS011;1796;52.388;13.096;2023-06-22T00:26:08;13.07;;;11.23;;
3563;SDS011;1796;52.388;13.096;2023-06-22T00:28:36;18.43;;;11.00;;
3563;SDS011;1796;52.388;13.096;2023-06-22T00:31:03;14.87;;;12.03;;
3563;SDS011;1796;52.388;13.096;2023-06-22T00:33:30;17.47;;;11.50;;
3563;SDS011;1796;52.388;13.096;2023-06-22T00:35:57;13.23;;;11.93;;
3563;SDS011;1796;52.388;13.096;2023-06-22T00:38:24;11.80;;;10.60;;
3563;SDS011;1796;52.388;13.096;2023-06-22T00:40:52;18.90;;;11.47;;
3563;SDS011;1796;52.388;13.096;2023-06-22T00:43:19;14.90;;;12.00;;
3563;SDS011;1796;52.388;13.096;2023-06-22T00:45:46;12.33;;;11.10;;
3563;SDS011;1796;52.388;13.096;2023-06-22T00:48:13;13.60;;;11.90;;
3563;SDS011;1796;52.388;13.096;2023-06-22T00:50:40;11.90;;;10.70;;
3563;SDS011;1796;52.388;13.096;2023-06-22T00:53:08;16.13;;;12.03;;
3563;SDS011;1796;52.388;13.096;2023-06-22T00:55:36;11.60;;;10.37;;
3563;SDS011;1796;52.388;13.096;2023-06-22T00:58:05;14.70;;;12.40;;
3563;SDS011;1796;52.388;13.096;2023-06-22T01:00:35;12.70;;;11.40;;
3563;SDS011;1796;52.388;13.096;2023-06-22T01:03:02;13.57;;;12.27;;
3563;SDS011;1796;52.388;13.096;2023-06-22T01:18:30;25.97;;;11.70;;
3563;SDS011;1796;52.388;13.096;2023-06-22T01:20:58;16.57;;;12.50;;
3563;SDS011;1796;52.388;13.096;2023-06-22T01:23:29;14.87;;;12.60;;
3563;SDS011;1796;52.388;13.096;2023-06-22T01:26:16;14.67;;;11.70;;
3563;SDS011;1796;52.388;13.096;2023-06-22T01:28:47;13.33;;;11.93;;
3563;SDS011;1796;52.388;13.096;2023-06-22T01:31:16;13.83;;;11.87;;
3563;SDS011;1796;52.388;13.096;2023-06-22T01:33:46;15.30;;;11.90;;
3563;SDS011;1796;52.388;13.096;2023-06-22T01:36:17;14.63;;;10.90;;
3563;SDS011;1796;52.388;13.096;2023-06-22T01:38:45;11.20;;;9.80;;
3563;SDS011;1796;52.388;13.096;2023-06-22T01:41:13;13.20;;;11.80;;
3563;SDS011;1796;52.388;13.096;2023-06-22T01:43:42;12.40;;;11.10;;
3563;SDS011;1796;52.388;13.096;2023-06-22T01:46:11;13.50;;;10.57;;
3563;SDS011;1796;52.388;13.096;2023-06-22T01:48:38;11.27;;;10.13;;
3563;SDS011;1796;52.388;13.096;2023-06-22T01:51:05;13.33;;;11.20;;
3563;SDS011;1796;52.388;13.096;2023-06-22T01:53:32;27.43;;;10.67;;
3563;SDS011;1796;52.388;13.096;2023-06-22T01:55:59;13.63;;;11.00;;
3563;SDS011;1796;52.388;13.096;2023-06-22T01:58:27;15.07;;;11.63;;
3563;SDS011;1796;52.388;13.096;2023-06-22T02:00:57;12.47;;;11.17;;
3563;SDS011;1796;52.388;13.096;2023-06-22T02:03:31;13.63;;;11.70;;
3563;SDS011;1796;52.388;13.096;2023-06-22T02:06:04;12.27;;;11.00;;
3563;SDS011;1796;52.388;13.096;2023-06-22T02:08:36;14.70;;;11.30;;
3563;SDS011;1796;52.388;13.096;2023-06-22T02:11:07;12.13;;;10.47;;
3563;SDS011;1796;52.388;13.096;2023-06-22T02:13:36;19.40;;;10.83;;
3563;SDS011;1796;52.388;13.096;2023-06-22T02:16:07;12.10;;;10.90;;
3563;SDS011;1796;52.388;13.096;2023-06-22T02:18:37;18.07;;;11.30;;
3563;SDS011;1796;52.388;13.096;2023-06-22T02:21:05;15.13;;;11.60;;
3563;SDS011;1796;52.388;13.096;2023-06-22T02:23:32;13.23;;;11.50;;
3563;SDS011;1796;52.388;13.096;2023-06-22T02:26:00;12.70;;;10.97;;
3563;SDS011;1796;52.388;13.096;2023-06-22T02:28:27;13.13;;;11.37;;
3563;SDS011;1796;52.388;13.096;2023-06-22T02:30:54;11.20;;;10.13;;
3563;SDS011;1796;52.388;13.096;2023-06-22T02:33:21;12.77;;;11.47;;
3563;SDS011;1796;52.388;13.096;2023-06-22T02:35:50;12.23;;;10.90;;
3563;SDS011;1796;52.388;13.096;2023-06-22T02:38:17;12.17;;;10.97;;
3563;SDS011;1796;52.388;13.096;2023-06-22T02:40:44;16.70;;;11.10;;
3563;SDS011;1796;52.388;13.096;2023-06-22T02:43:11;12.87;;;10.70;;
3563;SDS011;1796;52.388;13.096;2023-06-22T02:45:38;16.83;;;12.00;;
3563;SDS011;1796;52.388;13.096;2023-06-22T02:48:05;12.20;;;10.90;;
3563;SDS011;1796;52.388;13.096;2023-06-22T02:50:31;12.63;;;11.33;;
3563;SDS011;1796;52.388;13.096;2023-06-22T02:53:00;14.07;;;11.83;;
3563;SDS011;1796;52.388;13.096;2023-06-22T02:55:27;12.70;;;11.40;;
3563;SDS011;1796;52.388;13.096;2023-06-22T02:57:53;13.50;;;12.10;;
3563;SDS011;1796;52.388;13.096;2023-06-22T03:00:22;18.13;;;11.80;;
3563;SDS011;1796;52.388;13.096;2023-06-22T03:02:50;15.00;;;11.07;;
3563;SDS011;1796;52.388;13.096;2023-06-22T03:05:17;25.53;;;13.07;;
3563;SDS011;1796;52.388;13.096;2023-06-22T03:07:44;15.77;;;11.97;;
3563;SDS011;1796;52.388;13.096;2023-06-22T03:10:13;14.27;;;12.77;;
3563;SDS011;1796;52.388;13.096;2023-06-22T03:12:40;15.50;;;12.20;;
3563;SDS011;1796;52.388;13.096;2023-06-22T03:15:09;14.97;;;13.27;;
3563;SDS011;1796;52.388;13.096;2023-06-22T03:17:38;14.27;;;12.73;;
3563;SDS011;1796;52.388;13.096;2023-06-22T03:20:07;13.53;;;12.10;;
3563;SDS011;1796;52.388;13.096;2023-06-22T03:22:36;12.73;;;11.43;;
3563;SDS011;1796;52.388;13.096;2023-06-22T03:25:04;16.83;;;13.40;;
3563;SDS011;1796;52.388;13.096;2023-06-22T03:27:36;14.20;;;11.70;;
3563;SDS011;1796;52.388;13.096;2023-06-22T03:30:03;15.27;;;12.23;;
3563;SDS011;1796;52.388;13.096;2023-06-22T03:32:31;16.93;;;12.57;;
3563;SDS011;1796;52.388;13.096;2023-06-22T03:34:58;17.53;;;13.10;;
3563;SDS011;1796;52.388;13.096;2023-06-22T03:37:25;16.03;;;12.43;;
3563;SDS011;1796;52.388;13.096;2023-06-22T03:39:52;15.10;;;12.50;;
3563;SDS011;1796;52.388;13.096;2023-06-22T03:42:19;15.53;;;12.63;;
3563;SDS011;1796;52.388;13.096;2023-06-22T03:44:47;14.13;;;12.73;;
3563;SDS011;1796;52.388;13.096;2023-06-22T03:47:14;15.13;;;11.57;;
3563;SDS011;1796;52.388;13.096;2023-06-22T03:49:41;15.17;;;13.07;;
3563;SDS011;1796;52.388;13.096;2023-06-22T03:52:08;13.73;;;12.43;;
3563;SDS011;1796;52.388;13.096;2023-06-22T03:54:36;18.20;;;13.33;;
3563;SDS011;1796;52.388;13.096;2023-06-22T03:57:03;14.07;;;12.67;;
3563;SDS011;1796;52.388;13.096;2023-06-22T03:59:30;13.33;;;12.10;;
3563;SDS011;1796;52.388;13.096;2023-06-22T04:01:58;14.23;;;12.73;;
3563;SDS011;1796;52.388;13.096;2023-06-22T04:04:25;14.63;;;13.03;;
3563;SDS011;1796;52.388;13.096;2023-06-22T04:06:52;16.00;;;13.33;;
3563;SDS011;1796;52.388;13.096;2023-06-22T04:09:19;14.17;;;11.70;;
3563;SDS011;1796;52.388;13.096;2023-06-22T04:11:47;15.77;;;12.33;;
3563;SDS011;1796;52.388;13.096;2023-06-22T04:14:14;24.10;;;11.77;;
3563;SDS011;1796;52.388;13.096;2023-06-22T04:16:41;15.83;;;12.50;;
3563;SDS011;1796;52.388;13.096;2023-06-22T04:19:09;14.20;;;12.53;;
3563;SDS011;1796;52.388;13.096;2023-06-22T04:21:41;15.17;;;13.03;;
3563;SDS011;1796;52.388;13.096;2023-06-22T04:24:08;13.97;;;11.93;;
3563;SDS011;1796;52.388;13.096;2023-06-22T04:26:35;17.07;;;12.30;;
3563;SDS011;1796;52.388;13.096;2023-06-22T04:29:02;15.83;;;10.70;;
3563;SDS011;1796;52.388;13.096;2023-06-22T04:31:30;14.90;;;11.23;;
3563;SDS011;1796;52.388;13.096;2023-06-22T04:34:01;15.70;;;12.20;;
3563;SDS011;1796;52.388;13.096;2023-06-22T04:36:33;12.63;;;11.43;;
3563;SDS011;1796;52.388;13.096;2023-06-22T04:39:03;11.87;;;10.70;;
3563;SDS011;1796;52.388;13.096;2023-06-22T04:41:31;21.63;;;11.00;;
3563;SDS011;1796;52.388;13.096;2023-06-22T04:44:07;12.53;;;11.20;;
3563;SDS011;1796;52.388;13.096;2023-06-22T04:46:34;14.10;;;11.53;;
3563;SDS011;1796;52.388;13.096;2023-06-22T04:49:03;15.30;;;12.50;;
3563;SDS011;1796;52.388;13.096;2023-06-22T04:51:37;15.57;;;11.33;;
3563;SDS011;1796;52.388;13.096;2023-06-22T04:54:05;17.43;;;12.13;;
3563;SDS011;1796;52.388;13.096;2023-06-22T04:56:33;15.67;;;11.50;;
3563;SDS011;1796;52.388;13.096;2023-06-22T04:59:01;13.80;;;11.77;;
3563;SDS011;1796;52.388;13.096;2023-06-22T05:01:28;12.83;;;11.40;;
3563;SDS011;1796;52.388;13.096;2023-06-22T05:03:57;12.53;;;10.90;;
3563;SDS011;1796;52.388;13.096;2023-06-22T05:06:26;14.60;;;10.67;;
3563;SDS011;1796;52.388;13.096;2023-06-22T05:08:55;11.77;;;10.27;;
3563;SDS011;1796;52.388;13.096;2023-06-22T05:11:23;15.33;;;11.10;;
3563;SDS011;1796;52.388;13.096;2023-06-22T05:13:53;15.00;;;10.07;;
3563;SDS011;1796;52.388;13.096;2023-06-22T05:16:24;12.10;;;9.60;;
3563;SDS011;1796;52.388;13.096;2023-06-22T05:18:51;12.97;;;9.37;;
3563;SDS011;1796;52.388;13.096;2023-06-22T05:21:21;13.90;;;9.47;;
3563;SDS011;1796;52.388;13.096;2023-06-22T05:23:48;14.67;;;9.73;;
3563;SDS011;1796;52.388;13.096;2023-06-22T05:26:17;14.57;;;9.17;;
3563;SDS011;1796;52.388;13.096;2023-06-22T05:28:45;8.87;;;8.07;;
3563;SDS011;1796;52.388;13.096;2023-06-22T05:31:12;10.30;;;8.57;;
3563;SDS011;1796;52.388;13.096;2023-06-22T05:33:40;13.33;;;8.47;;
3563;SDS011;1796;52.388;13.096;2023-06-22T05:36:07;9.83;;;7.43;;
3563;SDS011;1796;52.388;13.096;2023-06-22T05:38:35;7.97;;;7.30;;
3563;SDS011;1796;52.388;13.096;2023-06-22T05:41:02;10.40;;;8.90;;
3563;SDS011;1796;52.388;13.096;2023-06-22T05:43:30;9.43;;;8.40;;
3563;SDS011;1796;52.388;13.096;2023-06-22T05:45:57;9.77;;;8.23;;
3563;SDS011;1796;52.388;13.096;2023-06-22T05:48:24;9.03;;;7.37;;
3563;SDS011;1796;52.388;13.096;2023-06-22T05:50:51;13.73;;;7.20;;
3563;SDS011;1796;52.388;13.096;2023-06-22T05:53:18;8.63;;;7.83;;
3563;SDS011;1796;52.388;13.096;2023-06-22T05:55:45;8.87;;;7.80;;
3563;SDS011;1796;52.388;13.096;2023-06-22T05:58:12;8.47;;;7.57;;
3563;SDS011;1796;52.388;13.096;2023-06-22T06:00:41;9.50;;;7.73;;
3563;SDS011;1796;52.388;13.096;2023-06-22T06:03:09;9.57;;;7.10;;
3563;SDS011;1796;52.388;13.096;2023-06-22T06:05:36;7.47;;;6.77;;
3563;SDS011;1796;52.388;13.096;2023-06-22T06:08:04;7.57;;;6.80;;
3563;SDS011;1796;52.388;13.096;2023-06-22T06:10:32;9.10;;;7.00;;
3563;SDS011;1796;52.388;13.096;2023-06-22T06:12:59;7.70;;;6.40;;
3563;SDS011;1796;52.388;13.096;2023-06-22T06:15:29;9.43;;;6.97;;
3563;SDS011;1796;52.388;13.096;2023-06-22T06:17:58;6.90;;;5.77;;
3563;SDS011;1796;52.388;13.096;2023-06-22T06:20:25;7.97;;;6.40;;
3563;SDS011;1796;52.388;13.096;2023-06-22T06:22:53;7.57;;;7.00;;
3563;SDS011;1796;52.388;13.096;2023-06-22T06:25:20;6.90;;;6.20;;
3563;SDS011;1796;52.388;13.096;2023-06-22T06:27:47;6.53;;;6.00;;
3563;SDS011;1796;52.388;13.096;2023-06-22T06:30:17;5.87;;;5.20;;
3563;SDS011;1796;52.388;13.096;2023-06-22T06:32:45;5.20;;;4.53;;
3563;SDS011;1796;52.388;13.096;2023-06-22T06:35:14;6.57;;;5.60;;
3563;SDS011;1796;52.388;13.096;2023-06-22T06:37:42;5.13;;;4.63;;
3563;SDS011;1796;52.388;13.096;2023-06-22T06:40:10;5.33;;;4.83;;
3563;SDS011;1796;52.388;13.096;2023-06-22T06:42:39;5.93;;;4.70;;
3563;SDS011;1796;52.388;13.096;2023-06-22T06:45:09;9.20;;;5.10;;
3563;SDS011;1796;52.388;13.096;2023-06-22T06:47:37;7.40;;;5.33;;
3563;SDS011;1796;52.388;13.096;2023-06-22T06:50:04;5.37;;;4.97;;
3563;SDS011;1796;52.388;13.096;2023-06-22T06:52:33;7.77;;;4.90;;
3563;SDS011;1796;52.388;13.096;2023-06-22T06:55:00;8.77;;;4.30;;
3563;SDS011;1796;52.388;13.096;2023-06-22T06:57:29;12.60;;;4.90;;
3563;SDS011;1796;52.388;13.096;2023-06-22T06:59:57;5.13;;;4.63;;
3563;SDS011;1796;52.388;13.096;2023-06-22T07:02:25;4.30;;;3.90;;
3563;SDS011;1796;52.388;13.096;2023-06-22T07:04:54;10.10;;;3.60;;
3563;SDS011;1796;52.388;13.096;2023-06-22T07:07:21;8.23;;;3.60;;
3563;SDS011;1796;52.388;13.096;2023-06-22T07:09:49;3.93;;;3.40;;
3563;SDS011;1796;52.388;13.096;2023-06-22T07:12:16;5.33;;;3.40;;
3563;SDS011;1796;52.388;13.096;2023-06-22T07:14:43;6.40;;;3.57;;
3563;SDS011;1796;52.388;13.096;2023-06-22T07:17:10;4.87;;;3.50;;
3563;SDS011;1796;52.388;13.096;2023-06-22T07:19:37;3.40;;;3.20;;
3563;SDS011;1796;52.388;13.096;2023-06-22T07:22:04;3.07;;;2.83;;
3563;SDS011;1796;52.388;13.096;2023-06-22T07:24:31;3.57;;;3.30;;
3563;SDS011;1796;52.388;13.096;2023-06-22T07:26:59;3.50;;;3.30;;
3563;SDS011;1796;52.388;13.096;2023-06-22T07:29:28;3.07;;;2.87;;
3563;SDS011;1796;52.388;13.096;2023-06-22T07:31:56;3.70;;;3.40;;
3563;SDS011;1796;52.388;13.096;2023-06-22T07:34:25;3.27;;;2.97;;
3563;SDS011;1796;52.388;13.096;2023-06-22T07:36:52;5.07;;;3.30;;
3563;SDS011;1796;52.388;13.096;2023-06-22T07:39:18;4.00;;;3.80;;
3563;SDS011;1796;52.388;13.096;2023-06-22T07:41:50;4.97;;;3.87;;
3563;SDS011;1796;52.388;13.096;2023-06-22T07:44:19;3.63;;;3.53;;
3563;SDS011;1796;52.388;13.096;2023-06-22T07:46:46;3.87;;;3.57;;
3563;SDS011;1796;52.388;13.096;2023-06-22T07:49:13;5.00;;;4.00;;
3563;SDS011;1796;52.388;13.096;2023-06-22T07:51:39;3.83;;;3.50;;
3563;SDS011;1796;52.388;13.096;2023-06-22T07:54:06;4.10;;;3.80;;
3563;SDS011;1796;52.388;13.096;2023-06-22T07:56:35;8.73;;;4.30;;
3563;SDS011;1796;52.388;13.096;2023-06-22T07:59:02;5.60;;;3.90;;
3563;SDS011;1796;52.388;13.096;2023-06-22T08:01:30;4.00;;;3.70;;
3563;SDS011;1796;52.388;13.096;2023-06-22T08:03:57;4.27;;;3.97;;
3563;SDS011;1796;52.388;13.096;2023-06-22T08:06:24;7.60;;;4.87;;
3563;SDS011;1796;52.388;13.096;2023-06-22T08:08:51;4.57;;;4.13;;
3563;SDS011;1796;52.388;13.096;2023-06-22T08:11:19;4.10;;;3.90;;
3563;SDS011;1796;52.388;13.096;2023-06-22T08:13:47;4.83;;;4.00;;
3563;SDS011;1796;52.388;13.096;2023-06-22T08:16:14;4.47;;;4.07;;
3563;SDS011;1796;52.388;13.096;2023-06-22T08:18:42;4.50;;;4.20;;
3563;SDS011;1796;52.388;13.096;2023-06-22T08:21:09;4.90;;;4.33;;
3563;SDS011;1796;52.388;13.096;2023-06-22T08:23:37;5.47;;;3.63;;
3563;SDS011;1796;52.388;13.096;2023-06-22T08:26:04;8.27;;;4.40;;
3563;SDS011;1796;52.388;13.096;2023-06-22T08:28:31;5.27;;;4.10;;
3563;SDS011;1796;52.388;13.096;2023-06-22T08:30:57;4.27;;;3.90;;
3563;SDS011;1796;52.388;13.096;2023-06-22T08:33:26;4.20;;;3.80;;
3563;SDS011;1796;52.388;13.096;2023-06-22T08:35:54;6.50;;;4.90;;
3563;SDS011;1796;52.388;13.096;2023-06-22T08:38:21;4.10;;;3.80;;
3563;SDS011;1796;52.388;13.096;2023-06-22T08:40:48;7.27;;;4.17;;
3563;SDS011;1796;52.388;13.096;2023-06-22T08:43:15;3.30;;;3.20;;
3563;SDS011;1796;52.388;13.096;2023-06-22T08:45:42;3.97;;;3.67;;
3563;SDS011;1796;52.388;13.096;2023-06-22T08:48:09;10.57;;;3.87;;
3563;SDS011;1796;52.388;13.096;2023-06-22T08:50:36;3.80;;;3.40;;
3563;SDS011;1796;52.388;13.096;2023-06-22T08:53:06;4.00;;;3.70;;
3563;SDS011;1796;52.388;13.096;2023-06-22T08:55:33;4.03;;;3.13;;
3563;SDS011;1796;52.388;13.096;2023-06-22T08:58:00;4.23;;;3.57;;
3563;SDS011;1796;52.388;13.096;2023-06-22T09:00:28;11.00;;;2.90;;
3563;SDS011;1796;52.388;13.096;2023-06-22T09:02:58;3.37;;;3.07;;
3563;SDS011;1796;52.388;13.096;2023-06-22T09:05:25;3.60;;;2.50;;
3563;SDS011;1796;52.388;13.096;2023-06-22T09:07:52;6.50;;;2.87;;
3563;SDS011;1796;52.388;13.096;2023-06-22T09:10:21;4.60;;;3.87;;
3563;SDS011;1796;52.388;13.096;2023-06-22T09:12:48;3.00;;;2.80;;
3563;SDS011;1796;52.388;13.096;2023-06-22T09:15:15;3.27;;;3.03;;
3563;SDS011;1796;52.388;13.096;2023-06-22T09:17:42;5.43;;;2.80;;
3563;SDS011;1796;52.388;13.096;2023-06-22T09:20:11;5.40;;;3.20;;
3563;SDS011;1796;52.388;13.096;2023-06-22T09:22:38;3.00;;;2.90;;
3563;SDS011;1796;52.388;13.096;2023-06-22T09:25:05;3.23;;;3.03;;
3563;SDS011;1796;52.388;13.096;2023-06-22T09:27:34;9.40;;;3.30;;
3563;SDS011;1796;52.388;13.096;2023-06-22T09:30:01;5.80;;;3.50;;
3563;SDS011;1796;52.388;13.096;2023-06-22T09:32:28;8.23;;;3.23;;
3563;SDS011;1796;52.388;13.096;2023-06-22T09:34:55;3.90;;;2.90;;
3563;SDS011;1796;52.388;13.096;2023-06-22T09:37:22;6.43;;;3.00;;
3563;SDS011;1796;52.388;13.096;2023-06-22T09:39:49;3.30;;;3.10;;
3563;SDS011;1796;52.388;13.096;2023-06-22T09:42:16;20.23;;;4.30;;
3563;SDS011;1796;52.388;13.096;2023-06-22T09:44:44;4.53;;;3.63;;
3563;SDS011;1796;52.388;13.096;2023-06-22T09:47:11;6.30;;;3.50;;
3563;SDS011;1796;52.388;13.096;2023-06-22T09:49:38;4.47;;;3.30;;
3563;SDS011;1796;52.388;13.096;2023-06-22T09:52:05;7.53;;;3.20;;
3563;SDS011;1796;52.388;13.096;2023-06-22T09:54:33;7.57;;;3.40;;
3563;SDS011;1796;52.388;13.096;2023-06-22T09:56:59;3.53;;;3.33;;
3563;SDS011;1796;52.388;13.096;2023-06-22T09:59:26;3.33;;;3.13;;
3563;SDS011;1796;52.388;13.096;2023-06-22T10:01:54;4.20;;;3.40;;
3563;SDS011;1796;52.388;13.096;2023-06-22T10:04:21;6.70;;;4.97;;
3563;SDS011;1796;52.388;13.096;2023-06-22T10:06:49;4.17;;;3.87;;
3563;SDS011;1796;52.388;13.096;2023-06-22T10:09:16;4.57;;;4.27;;
3563;SDS011;1796;52.388;13.096;2023-06-22T10:11:43;4.17;;;3.87;;
3563;SDS011;1796;52.388;13.096;2023-06-22T10:14:10;3.80;;;3.50;;
3563;SDS011;1796;52.388;13.096;2023-06-22T10:16:37;4.10;;;3.77;;
3563;SDS011;1796;52.388;13.096;2023-06-22T10:19:05;3.97;;;3.60;;
3563;SDS011;1796;52.388;13.096;2023-06-22T10:21:32;3.60;;;3.40;;
3563;SDS011;1796;52.388;13.096;2023-06-22T10:23:59;3.80;;;3.60;;
3563;SDS011;1796;52.388;13.096;2023-06-22T10:26:31;6.70;;;3.87;;
3563;SDS011;1796;52.388;13.096;2023-06-22T10:28:58;4.17;;;3.80;;
3563;SDS011;1796;52.388;13.096;2023-06-22T10:31:25;4.10;;;3.90;;
3563;SDS011;1796;52.388;13.096;2023-06-22T10:33:52;4.93;;;3.97;;
3563;SDS011;1796;52.388;13.096;2023-06-22T10:36:21;5.17;;;3.97;;
3563;SDS011;1796;52.388;13.096;2023-06-22T10:38:48;4.43;;;3.97;;
3563;SDS011;1796;52.388;13.096;2023-06-22T10:41:15;4.20;;;3.90;;
3563;SDS011;1796;52.388;13.096;2023-06-22T10:43:42;10.33;;;3.23;;
3563;SDS011;1796;52.388;13.096;2023-06-22T10:46:09;5.67;;;4.40;;
3563;SDS011;1796;52.388;13.096;2023-06-22T10:48:36;6.20;;;3.60;;
3563;SDS011;1796;52.388;13.096;2023-06-22T10:51:03;11.20;;;4.00;;
3563;SDS011;1796;52.388;13.096;2023-06-22T10:53:31;4.33;;;3.70;;
3563;SDS011;1796;52.388;13.096;2023-06-22T10:55:58;4.23;;;3.80;;
3563;SDS011;1796;52.388;13.096;2023-06-22T10:58:25;10.53;;;3.93;;
3563;SDS011;1796;52.388;13.096;2023-06-22T11:00:52;4.23;;;3.73;;
3563;SDS011;1796;52.388;13.096;2023-06-22T11:03:19;4.10;;;3.80;;
3563;SDS011;1796;52.388;13.096;2023-06-22T11:05:45;5.93;;;4.07;;
3563;SDS011;1796;52.388;13.096;2023-06-22T11:08:13;4.90;;;4.37;;
3563;SDS011;1796;52.388;13.096;2023-06-22T11:10:41;4.87;;;4.20;;
3563;SDS011;1796;52.388;13.096;2023-06-22T11:13:08;3.80;;;3.60;;
3563;SDS011;1796;52.388;13.096;2023-06-22T11:15:35;4.30;;;3.90;;
3563;SDS011;1796;52.388;13.096;2023-06-22T11:18:02;4.30;;;4.00;;
3563;SDS011;1796;52.388;13.096;2023-06-22T11:20:30;4.33;;;4.03;;
3563;SDS011;1796;52.388;13.096;2023-06-22T11:22:59;5.33;;;3.70;;
3563;SDS011;1796;52.388;13.096;2023-06-22T11:25:26;4.23;;;3.93;;
3563;SDS011;1796;52.388;13.096;2023-06-22T11:27:55;4.63;;;4.33;;
3563;SDS011;1796;52.388;13.096;2023-06-22T11:30:22;4.33;;;4.03;;
3563;SDS011;1796;52.388;13.096;2023-06-22T11:32:49;5.10;;;3.90;;
3563;SDS011;1796;52.388;13.096;2023-06-22T11:35:16;4.30;;;4.00;;
3563;SDS011;1796;52.388;13.096;2023-06-22T11:37:43;4.50;;;4.17;;
3563;SDS011;1796;52.388;13.096;2023-06-22T11:40:10;4.67;;;4.27;;
3563;SDS011;1796;52.388;13.096;2023-06-22T11:42:37;4.47;;;4.00;;
3563;SDS011;1796;52.388;13.096;2023-06-22T11:45:06;6.13;;;3.83;;
3563;SDS011;1796;52.388;13.096;2023-06-22T11:47:34;9.10;;;4.40;;
3563;SDS011;1796;52.388;13.096;2023-06-22T11:50:01;3.90;;;3.47;;
3563;SDS011;1796;52.388;13.096;2023-06-22T11:52:28;9.40;;;4.27;;
3563;SDS011;1796;52.388;13.096;2023-06-22T11:54:55;4.80;;;4.37;;
3563;SDS011;1796;52.388;13.096;2023-06-22T11:57:22;5.77;;;3.97;;
3563;SDS011;1796;52.388;13.096;2023-06-22T11:59:49;4.30;;;3.90;;
3563;SDS011;1796;52.388;13.096;2023-06-22T12:02:17;4.23;;;3.93;;
3563;SDS011;1796;52.388;13.096;2023-06-22T12:04:44;8.27;;;3.70;;
3563;SDS011;1796;52.388;13.096;2023-06-22T12:07:11;6.43;;;4.30;;
3563;SDS011;1796;52.388;13.096;2023-06-22T12:09:38;4.13;;;3.93;;
3563;SDS011;1796;52.388;13.096;2023-06-22T12:12:06;4.20;;;4.00;;
3563;SDS011;1796;52.388;13.096;2023-06-22T12:14:33;4.17;;;3.87;;
3563;SDS011;1796;52.388;13.096;2023-06-22T12:17:00;4.97;;;4.27;;
3563;SDS011;1796;52.388;13.096;2023-06-22T12:19:28;17.03;;;4.60;;
3563;SDS011;1796;52.388;13.096;2023-06-22T12:21:55;4.33;;;3.63;;
3563;SDS011;1796;52.388;13.096;2023-06-22T12:24:22;4.50;;;4.10;;
3563;SDS011;1796;52.388;13.096;2023-06-22T12:26:49;6.73;;;4.33;;
3563;SDS011;1796;52.388;13.096;2023-06-22T12:29:16;4.40;;;4.00;;
3563;SDS011;1796;52.388;13.096;2023-06-22T12:31:43;4.13;;;3.93;;
3563;SDS011;1796;52.388;13.096;2023-06-22T12:34:09;4.17;;;3.93;;
3563;SDS011;1796;52.388;13.096;2023-06-22T12:36:38;4.93;;;4.53;;
3563;SDS011;1796;52.388;13.096;2023-06-22T12:39:05;4.90;;;4.50;;
3563;SDS011;1796;52.388;13.096;2023-06-22T12:41:32;4.70;;;4.40;;
3563;SDS011;1796;52.388;13.096;2023-06-22T12:43:59;5.77;;;4.33;;
3563;SDS011;1796;52.388;13.096;2023-06-22T12:46:25;4.53;;;4.23;;
3563;SDS011;1796;52.388;13.096;2023-06-22T12:48:52;3.90;;;3.63;;
3563;SDS011;1796;52.388;13.096;2023-06-22T12:51:20;4.67;;;4.20;;
3563;SDS011;1796;52.388;13.096;2023-06-22T12:53:49;5.77;;;4.03;;
3563;SDS011;1796;52.388;13.096;2023-06-22T12:56:16;6.70;;;4.33;;
3563;SDS011;1796;52.388;13.096;2023-06-22T12:58:44;4.40;;;4.10;;
3563;SDS011;1796;52.388;13.096;2023-06-22T13:01:11;5.97;;;4.37;;
3563;SDS011;1796;52.388;13.096;2023-06-22T13:03:37;4.37;;;4.10;;
3563;SDS011;1796;52.388;13.096;2023-06-22T13:06:05;4.87;;;4.50;;
3563;SDS011;1796;52.388;13.096;2023-06-22T13:08:31;5.63;;;4.80;;
3563;SDS011;1796;52.388;13.096;2023-06-22T13:11:00;4.63;;;4.33;;
3563;SDS011;1796;52.388;13.096;2023-06-22T13:13:26;5.97;;;4.40;;
3563;SDS011;1796;52.388;13.096;2023-06-22T13:15:53;4.27;;;4.07;;
3563;SDS011;1796;52.388;13.096;2023-06-22T13:18:20;5.67;;;5.07;;
3563;SDS011;1796;52.388;13.096;2023-06-22T13:20:47;5.53;;;4.73;;
3563;SDS011;1796;52.388;13.096;2023-06-22T13:23:14;4.67;;;4.27;;
3563;SDS011;1796;52.388;13.096;2023-06-22T13:25:43;5.10;;;4.70;;
3563;SDS011;1796;52.388;13.096;2023-06-22T13:28:11;6.13;;;4.40;;
3563;SDS011;1796;52.388;13.096;2023-06-22T13:30:40;6.93;;;4.03;;
3563;SDS011;1796;52.388;13.096;2023-06-22T13:33:11;4.40;;;4.10;;
3563;SDS011;1796;52.388;13.096;2023-06-22T13:35:38;11.30;;;3.87;;
3563;SDS011;1796;52.388;13.096;2023-06-22T13:38:07;4.87;;;4.43;;
3563;SDS011;1796;52.388;13.096;2023-06-22T13:40:34;5.40;;;4.10;;
3563;SDS011;1796;52.388;13.096;2023-06-22T13:43:01;4.43;;;4.13;;
3563;SDS011;1796;52.388;13.096;2023-06-22T13:45:29;5.30;;;4.50;;
3563;SDS011;1796;52.388;13.096;2023-06-22T13:47:56;5.00;;;4.60;;
3563;SDS011;1796;52.388;13.096;2023-06-22T13:50:23;6.03;;;4.80;;
3563;SDS011;1796;52.388;13.096;2023-06-22T13:52:50;4.70;;;4.10;;
3563;SDS011;1796;52.388;13.096;2023-06-22T13:55:17;4.50;;;4.20;;
3563;SDS011;1796;52.388;13.096;2023-06-22T13:57:46;4.60;;;4.20;;
3563;SDS011;1796;52.388;13.096;2023-06-22T14:00:13;4.27;;;4.07;;
3563;SDS011;1796;52.388;13.096;2023-06-22T14:02:42;4.83;;;3.93;;
3563;SDS011;1796;52.388;13.096;2023-06-22T14:05:09;4.10;;;3.60;;
3563;SDS011;1796;52.388;13.096;2023-06-22T14:07:45;10.93;;;4.27;;
3563;SDS011;1796;52.388;13.096;2023-06-22T14:10:12;4.53;;;4.10;;
3563;SDS011;1796;52.388;13.096;2023-06-22T14:12:41;4.93;;;4.53;;
3563;SDS011;1796;52.388;13.096;2023-06-22T14:15:08;5.20;;;3.97;;
3563;SDS011;1796;52.388;13.096;2023-06-22T14:17:47;4.70;;;4.27;;
3563;SDS011;1796;52.388;13.096;2023-06-22T14:20:16;12.17;;;5.20;;
3563;SDS011;1796;52.388;13.096;2023-06-22T14:22:43;8.93;;;4.60;;
3563;SDS011;1796;52.388;13.096;2023-06-22T14:25:10;5.30;;;4.77;;
3563;SDS011;1796;52.388;13.096;2023-06-22T14:27:37;5.60;;;4.53;;
3563;SDS011;1796;52.388;13.096;2023-06-22T14:30:04;4.63;;;4.20;;
3563;SDS011;1796;52.388;13.096;2023-06-22T14:32:32;5.27;;;4.87;;
3563;SDS011;1796;52.388;13.096;2023-06-22T14:35:00;8.23;;;4.83;;
3563;SDS011;1796;52.388;13.096;2023-06-22T14:37:27;5.47;;;4.40;;
3563;SDS011;1796;52.388;13.096;2023-06-22T14:39:54;5.53;;;4.80;;
3563;SDS011;1796;52.388;13.096;2023-06-22T14:42:20;5.13;;;4.73;;
3563;SDS011;1796;52.388;13.096;2023-06-22T14:44:47;4.80;;;4.50;;
3563;SDS011;1796;52.388;13.096;2023-06-22T14:47:14;5.13;;;4.80;;
3563;SDS011;1796;52.388;13.096;2023-06-22T14:49:43;5.03;;;4.63;;
3563;SDS011;1796;52.388;13.096;2023-06-22T14:52:11;5.40;;;5.00;;
3563;SDS011;1796;52.388;13.096;2023-06-22T14:54:39;4.50;;;4.17;;
3563;SDS011;1796;52.388;13.096;2023-06-22T14:57:06;4.47;;;4.17;;
3563;SDS011;1796;52.388;13.096;2023-06-22T14:59:33;5.10;;;4.60;;
3563;SDS011;1796;52.388;13.096;2023-06-22T15:01:59;5.30;;;4.90;;
3563;SDS011;1796;52.388;13.096;2023-06-22T15:04:26;6.63;;;5.80;;
3563;SDS011;1796;52.388;13.096;2023-06-22T15:06:56;5.60;;;5.10;;